Time;durP1;ratioP1;P1;durP2;ratioP2;P2;SDS_P1;SDS_P2;PMS_P1;PMS_P2;Temp;Humidity;BMP_temperature;BMP_pressure;BME280_temperature;BME280_humidity;BME280_pressure;Samples;Min_cycle;Max_cycle;Signal;HPM_P1;HPM_P2
2024/03/06 00:00:27;;;;;;;20.47;11.03;;;4.40;99.90;;;;;;4182554;28;21054;-75
2024/03/06 00:02:28;;;;;;;20.97;11.17;;;4.40;99.90;;;;;;4182744;28;20481;-74
2024/03/06 00:04:33;;;;;;;24.57;11.27;;;4.40;99.90;;;;;;4186124;28;20553;-75
2024/03/06 00:06:35;;;;;;;29.07;12.07;;;4.40;99.90;;;;;;4183378;28;21149;-75
2024/03/06 00:08:37;;;;;;;24.53;11.83;;;4.40;99.90;;;;;;4186145;28;20457;-75
2024/03/06 00:10:41;;;;;;;22.87;12.43;;;4.40;99.90;;;;;;4184167;28;20828;-75
2024/03/06 00:12:43;;;;;;;26.90;11.60;;;4.40;99.90;;;;;;4184525;28;20999;-75
2024/03/06 00:14:45;;;;;;;23.30;12.33;;;4.40;99.90;;;;;;4182799;28;20451;-75
2024/03/06 00:16:47;;;;;;;19.60;11.03;;;4.40;99.90;;;;;;4185808;28;20483;-74
2024/03/06 00:18:49;;;;;;;22.77;10.93;;;4.40;99.90;;;;;;4180698;28;21020;-75
2024/03/06 00:20:51;;;;;;;25.03;11.33;;;4.40;99.90;;;;;;4182768;28;21027;-74
2024/03/06 00:22:54;;;;;;;21.47;11.97;;;4.40;99.90;;;;;;4183290;28;20510;-74
2024/03/06 00:24:56;;;;;;;22.87;11.47;;;4.40;99.90;;;;;;4182096;28;21030;-74
2024/03/06 00:26:59;;;;;;;22.37;11.50;;;4.40;99.90;;;;;;4183166;28;20862;-74
2024/03/06 00:29:01;;;;;;;21.57;11.87;;;4.40;99.90;;;;;;4181738;28;20507;-75
2024/03/06 00:31:03;;;;;;;18.53;10.83;;;4.40;99.90;;;;;;4180190;28;20558;-75
2024/03/06 00:33:05;;;;;;;22.70;11.40;;;4.30;99.90;;;;;;4181180;28;21133;-74
2024/03/06 00:35:08;;;;;;;22.23;11.57;;;4.30;99.90;;;;;;4178193;28;20457;-75
2024/03/06 00:37:10;;;;;;;21.57;11.20;;;4.30;99.90;;;;;;4182450;28;20496;-75
2024/03/06 00:39:14;;;;;;;21.67;11.27;;;4.30;99.90;;;;;;4183615;28;20496;-75
2024/03/06 00:41:16;;;;;;;20.47;11.10;;;4.20;99.90;;;;;;4184831;28;21048;-75
2024/03/06 00:43:20;;;;;;;22.30;11.47;;;4.10;99.90;;;;;;4185874;28;20533;-75
2024/03/06 00:45:22;;;;;;;23.97;12.33;;;4.20;99.90;;;;;;4187376;28;20994;-75
2024/03/06 00:47:24;;;;;;;25.37;12.20;;;4.00;99.90;;;;;;4184991;28;20497;-75
2024/03/06 00:49:26;;;;;;;24.13;11.53;;;4.00;99.90;;;;;;4185339;28;20854;-76
2024/03/06 00:51:28;;;;;;;24.90;11.37;;;3.90;99.90;;;;;;4192002;28;20462;-75
2024/03/06 00:53:30;;;;;;;23.30;11.63;;;3.90;99.90;;;;;;4189655;28;20441;-76
2024/03/06 00:55:32;;;;;;;23.80;11.40;;;3.90;99.90;;;;;;4191894;28;21216;-76
2024/03/06 00:57:33;;;;;;;22.73;11.13;;;3.80;99.90;;;;;;4191109;28;20466;-76
2024/03/06 00:59:36;;;;;;;23.83;11.87;;;3.80;99.90;;;;;;4190122;28;20461;-74
2024/03/06 01:01:38;;;;;;;22.27;11.53;;;3.70;99.90;;;;;;4191692;28;20700;-75
2024/03/06 01:03:39;;;;;;;23.40;10.90;;;3.70;99.90;;;;;;4188090;28;20485;-75
2024/03/06 01:05:41;;;;;;;23.43;11.87;;;3.60;99.90;;;;;;4192867;28;20530;-73
2024/03/06 01:07:43;;;;;;;20.27;11.53;;;3.50;99.90;;;;;;4185010;28;20204;-75
2024/03/06 01:09:46;;;;;;;24.70;11.87;;;3.50;99.90;;;;;;4184164;28;20791;-75
2024/03/06 01:11:48;;;;;;;25.10;11.70;;;3.50;99.90;;;;;;4186436;28;20471;-75
2024/03/06 01:13:50;;;;;;;24.07;11.87;;;3.50;99.90;;;;;;4190158;28;20516;-75
2024/03/06 01:15:54;;;;;;;26.03;12.40;;;3.50;99.90;;;;;;4195197;28;20505;-73
2024/03/06 01:17:57;;;;;;;29.37;12.07;;;3.40;99.90;;;;;;4195848;28;21466;-76
2024/03/06 01:20:00;;;;;;;25.23;11.60;;;3.40;99.90;;;;;;4185608;28;20941;-75
2024/03/06 01:22:01;;;;;;;22.60;12.30;;;3.30;99.90;;;;;;4186407;28;20465;-74
2024/03/06 01:24:04;;;;;;;25.83;12.10;;;3.30;99.90;;;;;;4191002;28;20571;-76
2024/03/06 01:26:05;;;;;;;27.40;12.23;;;3.30;99.90;;;;;;4189652;28;20477;-75
2024/03/06 01:28:07;;;;;;;26.93;12.87;;;3.30;99.90;;;;;;4184901;28;20448;-76
2024/03/06 01:30:10;;;;;;;27.77;12.63;;;3.30;99.90;;;;;;4184290;28;20211;-75
2024/03/06 01:32:14;;;;;;;24.40;12.83;;;3.20;99.90;;;;;;4186623;28;20454;-75
2024/03/06 01:34:16;;;;;;;25.47;12.73;;;3.30;99.90;;;;;;4186160;28;20547;-74
2024/03/06 01:36:18;;;;;;;26.07;13.33;;;3.10;99.90;;;;;;4186830;28;20519;-74
2024/03/06 01:38:20;;;;;;;23.97;12.77;;;3.10;99.90;;;;;;4185771;28;20455;-73
2024/03/06 01:40:22;;;;;;;27.60;13.03;;;3.10;99.90;;;;;;4182891;28;20552;-76
2024/03/06 01:42:24;;;;;;;24.70;12.57;;;3.00;99.90;;;;;;4186043;28;20535;-75
2024/03/06 01:44:26;;;;;;;27.47;12.47;;;3.00;99.90;;;;;;4192869;28;20445;-75
2024/03/06 01:46:30;;;;;;;30.03;13.33;;;3.00;99.90;;;;;;4187524;28;20905;-75
2024/03/06 01:48:35;;;;;;;28.47;12.97;;;3.00;99.90;;;;;;4184065;28;20478;-74
2024/03/06 01:50:37;;;;;;;25.23;13.97;;;2.90;99.90;;;;;;4184325;28;20544;-76
2024/03/06 01:52:41;;;;;;;26.03;13.70;;;2.90;99.90;;;;;;4182677;28;20879;-76
2024/03/06 01:54:43;;;;;;;27.73;13.13;;;2.90;99.90;;;;;;4183732;28;20501;-73
2024/03/06 01:56:46;;;;;;;27.23;13.47;;;2.80;99.90;;;;;;4183002;28;21111;-75
2024/03/06 01:58:49;;;;;;;27.20;13.53;;;2.80;99.90;;;;;;4183354;28;20528;-76
2024/03/06 02:00:51;;;;;;;29.73;14.23;;;2.80;99.90;;;;;;4183373;28;20503;-75
2024/03/06 02:02:52;;;;;;;28.63;14.40;;;2.70;99.90;;;;;;4184959;28;20481;-75
2024/03/06 02:04:57;;;;;;;27.80;14.53;;;2.70;99.90;;;;;;4182107;28;20481;-76
2024/03/06 02:06:59;;;;;;;32.40;15.13;;;2.70;99.90;;;;;;4182516;28;20456;-75
2024/03/06 02:09:01;;;;;;;31.33;14.83;;;2.70;99.90;;;;;;4181717;28;20455;-76
2024/03/06 02:11:03;;;;;;;29.47;15.00;;;2.70;99.90;;;;;;4184806;28;20468;-76
2024/03/06 02:13:05;;;;;;;32.17;15.10;;;2.60;99.90;;;;;;4187060;28;20444;-76
2024/03/06 02:15:12;;;;;;;30.47;14.20;;;2.60;99.90;;;;;;4183561;28;20835;-75
2024/03/06 02:17:14;;;;;;;33.17;15.37;;;2.60;99.90;;;;;;4183948;28;20480;-76
2024/03/06 02:19:19;;;;;;;26.90;13.63;;;2.50;99.90;;;;;;4182908;28;20551;-75
2024/03/06 02:21:23;;;;;;;27.23;13.37;;;2.50;99.90;;;;;;4182019;28;20457;-76
2024/03/06 02:23:25;;;;;;;31.77;14.90;;;2.50;99.90;;;;;;4183836;28;20492;-76
2024/03/06 02:25:25;;;;;;;35.13;15.07;;;2.40;99.90;;;;;;4183591;28;20466;-76
2024/03/06 02:27:31;;;;;;;35.70;15.30;;;2.40;99.90;;;;;;4182843;28;20507;-74
2024/03/06 02:29:33;;;;;;;30.30;14.53;;;2.50;99.90;;;;;;4184100;28;20697;-76
2024/03/06 02:31:35;;;;;;;30.03;14.93;;;2.40;99.90;;;;;;4183628;28;20841;-76
2024/03/06 02:33:37;;;;;;;28.53;14.00;;;2.40;99.90;;;;;;4183396;28;21184;-76
2024/03/06 02:35:39;;;;;;;32.63;14.93;;;2.30;99.90;;;;;;4179850;28;20555;-76
2024/03/06 02:37:44;;;;;;;32.73;16.10;;;2.30;99.90;;;;;;4182635;28;20460;-76
2024/03/06 02:39:46;;;;;;;33.90;16.43;;;2.30;99.90;;;;;;4180350;28;20949;-75
2024/03/06 02:41:48;;;;;;;31.97;16.20;;;2.30;99.90;;;;;;4180133;28;21100;-76
2024/03/06 02:43:50;;;;;;;34.87;14.93;;;2.20;99.90;;;;;;4183193;28;20491;-75
2024/03/06 02:45:52;;;;;;;33.00;16.03;;;2.20;99.90;;;;;;4184244;28;20979;-75
2024/03/06 02:47:54;;;;;;;30.93;14.57;;;2.20;99.90;;;;;;4185169;28;20982;-76
2024/03/06 02:49:56;;;;;;;31.90;15.87;;;2.10;99.90;;;;;;4185750;28;20495;-75
2024/03/06 02:52:00;;;;;;;32.07;14.30;;;2.10;99.90;;;;;;4182959;28;20465;-75
2024/03/06 02:54:04;;;;;;;32.57;14.50;;;2.10;99.90;;;;;;4183915;28;20503;-76
2024/03/06 02:56:06;;;;;;;32.87;14.87;;;2.10;99.90;;;;;;4185235;28;20496;-77
2024/03/06 02:58:07;;;;;;;32.63;14.77;;;2.00;99.90;;;;;;4185208;28;20543;-75
2024/03/06 03:00:13;;;;;;;31.47;14.80;;;2.00;99.90;;;;;;4182997;28;20531;-76
2024/03/06 03:02:14;;;;;;;28.10;14.77;;;2.00;99.90;;;;;;4185462;28;20841;-75
2024/03/06 03:04:17;;;;;;;26.43;13.30;;;1.90;99.90;;;;;;4186781;28;20822;-74
2024/03/06 03:06:19;;;;;;;29.20;13.80;;;1.90;99.90;;;;;;4186480;28;20877;-76
2024/03/06 03:08:20;;;;;;;28.70;15.23;;;1.90;99.90;;;;;;4186742;28;20848;-75
2024/03/06 03:10:24;;;;;;;28.70;14.63;;;1.90;99.90;;;;;;4186768;28;21015;-74
2024/03/06 03:12:26;;;;;;;27.83;14.00;;;1.80;99.90;;;;;;4183695;28;20476;-75
2024/03/06 03:14:28;;;;;;;34.13;15.27;;;1.80;99.90;;;;;;4183965;28;20626;-76
2024/03/06 03:16:32;;;;;;;36.90;16.43;;;1.80;99.90;;;;;;4185357;28;20910;-75
2024/03/06 03:18:33;;;;;;;33.20;14.67;;;1.80;99.90;;;;;;4185880;28;20452;-75
2024/03/06 03:20:36;;;;;;;36.93;15.87;;;1.80;99.90;;;;;;4185900;28;20456;-75
2024/03/06 03:22:38;;;;;;;35.53;16.43;;;1.80;99.90;;;;;;4184953;28;20201;-74
2024/03/06 03:24:42;;;;;;;38.60;16.80;;;1.80;99.90;;;;;;4186330;28;21214;-76
2024/03/06 03:26:45;;;;;;;34.57;16.20;;;1.80;99.90;;;;;;4185217;28;20562;-76
2024/03/06 03:28:46;;;;;;;33.00;15.00;;;1.80;99.90;;;;;;4186877;28;20490;-76
2024/03/06 03:30:48;;;;;;;37.50;16.33;;;1.70;99.90;;;;;;4183840;28;20437;-76
2024/03/06 03:32:50;;;;;;;34.60;15.63;;;1.70;99.90;;;;;;4186774;28;20701;-77
2024/03/06 03:34:52;;;;;;;31.07;15.63;;;1.70;99.90;;;;;;4183784;28;20518;-75
2024/03/06 03:36:54;;;;;;;32.87;15.37;;;1.70;99.90;;;;;;4185906;28;20500;-74
2024/03/06 03:38:55;;;;;;;31.50;15.60;;;1.70;99.90;;;;;;4188803;28;20854;-76
2024/03/06 03:40:56;;;;;;;35.00;15.93;;;1.60;99.90;;;;;;4185361;28;20535;-73
2024/03/06 03:43:05;;;;;;;34.03;16.13;;;1.60;99.90;;;;;;4182735;28;20572;-75
2024/03/06 03:45:08;;;;;;;38.53;16.40;;;1.60;99.90;;;;;;4189585;28;20237;-76
2024/03/06 03:47:10;;;;;;;33.37;15.83;;;1.60;99.90;;;;;;4185953;28;20463;-75
2024/03/06 03:49:13;;;;;;;35.60;15.93;;;1.60;99.90;;;;;;4191474;28;20492;-75
2024/03/06 03:51:14;;;;;;;29.90;14.47;;;1.60;99.90;;;;;;4185258;28;20971;-75
2024/03/06 03:53:16;;;;;;;30.23;14.00;;;1.60;99.90;;;;;;4185412;28;20559;-75
2024/03/06 03:55:18;;;;;;;29.60;14.90;;;1.60;99.90;;;;;;4186315;28;20447;-75
2024/03/06 03:57:20;;;;;;;28.07;14.47;;;1.50;99.90;;;;;;4183269;28;20446;-75
2024/03/06 03:59:25;;;;;;;30.73;14.30;;;1.60;99.90;;;;;;4183393;28;20496;-74
2024/03/06 04:01:26;;;;;;;32.50;14.83;;;1.50;99.90;;;;;;4183348;28;20456;-76
2024/03/06 04:03:27;;;;;;;32.70;14.80;;;1.40;99.90;;;;;;4182870;28;20571;-73
2024/03/06 04:05:29;;;;;;;32.90;15.50;;;1.40;99.90;;;;;;4184218;28;20472;-76
2024/03/06 04:07:30;;;;;;;35.30;15.73;;;1.40;99.90;;;;;;4188443;28;20209;-75
2024/03/06 04:09:35;;;;;;;32.67;14.80;;;1.30;99.90;;;;;;4183410;28;21323;-75
2024/03/06 04:11:37;;;;;;;31.97;15.50;;;1.30;99.90;;;;;;4182620;28;20718;-76
2024/03/06 04:13:39;;;;;;;30.20;14.93;;;1.30;99.90;;;;;;4184661;28;20453;-75
2024/03/06 04:15:43;;;;;;;36.07;17.03;;;1.30;99.90;;;;;;4183245;28;20930;-77
2024/03/06 04:17:44;;;;;;;35.37;16.37;;;1.20;99.90;;;;;;4183207;28;20846;-74
2024/03/06 04:19:48;;;;;;;32.40;14.93;;;1.20;99.90;;;;;;4186239;28;20638;-74
2024/03/06 04:21:50;;;;;;;30.20;14.93;;;1.20;99.90;;;;;;4182167;28;20461;-75
2024/03/06 04:23:51;;;;;;;36.30;15.17;;;1.20;99.90;;;;;;4185569;28;20480;-75
2024/03/06 04:25:53;;;;;;;31.60;15.93;;;1.20;99.90;;;;;;4182119;28;20461;-73
2024/03/06 04:27:55;;;;;;;35.83;15.93;;;1.10;99.90;;;;;;4184225;28;20448;-75
2024/03/06 04:29:57;;;;;;;33.93;15.87;;;1.10;99.90;;;;;;4186836;28;20527;-75
2024/03/06 04:32:00;;;;;;;37.83;16.53;;;1.10;99.90;;;;;;4183482;28;20498;-74
2024/03/06 04:34:01;;;;;;;37.87;17.20;;;1.10;99.90;;;;;;4184491;28;20937;-75
2024/03/06 04:36:05;;;;;;;37.00;15.90;;;1.10;99.90;;;;;;4186291;28;20507;-73
2024/03/06 04:38:07;;;;;;;44.07;17.30;;;1.00;99.90;;;;;;4190309;28;20205;-74
2024/03/06 04:40:10;;;;;;;35.80;16.67;;;1.00;99.90;;;;;;4186788;28;20476;-74
2024/03/06 04:42:11;;;;;;;40.03;16.37;;;1.00;99.90;;;;;;4183007;28;20517;-74
2024/03/06 04:44:12;;;;;;;33.97;16.30;;;1.00;99.90;;;;;;4186523;28;21018;-74
2024/03/06 04:46:14;;;;;;;36.00;16.33;;;1.00;99.90;;;;;;4180856;28;20500;-75
2024/03/06 04:48:18;;;;;;;34.63;16.77;;;1.00;99.90;;;;;;4188085;28;20203;-74
2024/03/06 04:50:19;;;;;;;37.87;17.37;;;0.90;99.90;;;;;;4186442;28;20455;-74
2024/03/06 04:52:20;;;;;;;37.17;15.90;;;1.00;99.90;;;;;;4186224;28;20535;-74
2024/03/06 04:54:22;;;;;;;36.10;16.57;;;0.90;99.90;;;;;;4185455;28;20491;-74
2024/03/06 04:56:24;;;;;;;39.70;17.60;;;0.90;99.90;;;;;;4179384;28;20233;-75
2024/03/06 04:58:25;;;;;;;39.53;17.20;;;0.90;99.90;;;;;;4186315;28;20917;-76
2024/03/06 05:00:29;;;;;;;37.23;16.50;;;0.90;99.90;;;;;;4185172;28;20463;-75
2024/03/06 05:02:31;;;;;;;40.17;17.73;;;0.90;99.90;;;;;;4184113;28;20661;-75
2024/03/06 05:04:34;;;;;;;36.07;17.43;;;0.90;99.90;;;;;;4184864;28;20562;-75
2024/03/06 05:06:36;;;;;;;41.10;18.77;;;0.90;99.90;;;;;;4180689;28;20534;-75
2024/03/06 05:08:38;;;;;;;39.33;17.60;;;0.90;99.90;;;;;;4186423;28;20467;-74
2024/03/06 05:10:40;;;;;;;44.40;18.30;;;0.90;99.90;;;;;;4180880;28;20496;-75
2024/03/06 05:12:42;;;;;;;37.00;17.23;;;0.90;99.90;;;;;;4185674;28;21150;-74
2024/03/06 05:14:44;;;;;;;36.60;17.07;;;0.80;99.90;;;;;;4184070;28;20452;-74
2024/03/06 05:16:46;;;;;;;40.00;17.13;;;0.90;99.90;;;;;;4182317;28;20534;-74
2024/03/06 05:18:48;;;;;;;37.90;18.07;;;0.80;99.90;;;;;;4183385;28;20451;-75
2024/03/06 05:20:51;;;;;;;38.47;17.30;;;0.80;99.90;;;;;;4186333;28;20455;-75
2024/03/06 05:22:52;;;;;;;37.80;16.30;;;0.80;99.90;;;;;;4181562;28;20546;-75
2024/03/06 05:24:54;;;;;;;38.67;18.10;;;0.70;99.90;;;;;;4181447;28;20484;-75
2024/03/06 05:26:56;;;;;;;43.37;17.47;;;0.70;99.90;;;;;;4184200;28;20340;-75
2024/03/06 05:28:58;;;;;;;39.13;18.30;;;0.70;99.90;;;;;;4183330;28;20500;-74
2024/03/06 05:31:00;;;;;;;47.33;20.07;;;0.70;99.90;;;;;;4183140;28;20507;-74
2024/03/06 05:33:05;;;;;;;38.90;17.60;;;0.70;99.90;;;;;;4180990;28;20501;-76
2024/03/06 05:35:09;;;;;;;43.27;18.73;;;0.70;99.90;;;;;;4183633;28;20437;-76
2024/03/06 05:37:12;;;;;;;36.67;16.73;;;0.70;99.90;;;;;;4184017;28;20472;-75
2024/03/06 05:39:15;;;;;;;38.43;17.13;;;0.70;99.90;;;;;;4183993;28;20555;-76
2024/03/06 05:41:18;;;;;;;37.83;16.67;;;0.70;99.90;;;;;;4183629;28;20460;-72
2024/03/06 05:43:19;;;;;;;38.73;17.50;;;0.60;99.90;;;;;;4181446;28;20444;-72
2024/03/06 05:45:21;;;;;;;38.50;17.07;;;0.60;99.90;;;;;;4180902;28;20580;-74
2024/03/06 05:47:22;;;;;;;33.97;16.40;;;0.60;99.90;;;;;;4180065;28;20448;-72
2024/03/06 05:49:25;;;;;;;37.40;16.73;;;0.60;99.90;;;;;;4184108;28;20518;-72
2024/03/06 05:51:27;;;;;;;33.00;16.20;;;0.60;99.90;;;;;;4182005;28;20231;-72
2024/03/06 05:53:29;;;;;;;38.07;16.77;;;0.60;99.90;;;;;;4181183;28;20460;-74
2024/03/06 05:55:32;;;;;;;37.33;16.20;;;0.50;99.90;;;;;;4182108;28;20436;-73
2024/03/06 05:57:34;;;;;;;36.23;17.23;;;0.50;99.90;;;;;;4188342;28;20451;-73
2024/03/06 05:59:35;;;;;;;35.73;15.97;;;0.50;99.90;;;;;;4181877;28;20536;-72
2024/03/06 06:01:37;;;;;;;38.77;16.90;;;0.50;99.90;;;;;;4189881;28;20444;-73
2024/03/06 06:03:39;;;;;;;36.13;16.83;;;0.50;99.90;;;;;;4182076;28;20546;-74
2024/03/06 06:05:40;;;;;;;34.00;15.17;;;0.50;99.90;;;;;;4182801;28;20565;-73
2024/03/06 06:07:42;;;;;;;37.83;16.67;;;0.50;99.90;;;;;;4184061;28;20457;-73
2024/03/06 06:09:46;;;;;;;36.13;15.20;;;0.50;99.90;;;;;;4183270;28;20943;-72
2024/03/06 06:11:48;;;;;;;41.93;17.53;;;0.50;99.90;;;;;;4181733;28;20483;-73
2024/03/06 06:13:50;;;;;;;36.13;17.13;;;0.50;99.90;;;;;;4182954;28;20465;-74
2024/03/06 06:15:52;;;;;;;37.43;17.33;;;0.50;99.90;;;;;;4189875;28;20472;-73
2024/03/06 06:17:53;;;;;;;38.87;17.10;;;0.50;99.90;;;;;;4178231;28;20453;-72
2024/03/06 06:19:55;;;;;;;39.20;17.77;;;0.50;99.90;;;;;;4181929;28;20451;-72
2024/03/06 06:21:57;;;;;;;40.20;17.73;;;0.50;99.90;;;;;;4183068;28;20230;-75
2024/03/06 06:23:59;;;;;;;42.10;17.63;;;0.50;99.90;;;;;;4182008;28;20473;-81
2024/03/06 06:26:03;;;;;;;46.87;19.07;;;0.50;99.90;;;;;;4191508;28;20534;-81
2024/03/06 06:28:05;;;;;;;46.33;18.87;;;0.60;99.90;;;;;;4187919;28;20455;-82
2024/03/06 06:30:11;;;;;;;41.40;18.13;;;0.60;99.90;;;;;;4181634;28;20444;-75
2024/03/06 06:32:13;;;;;;;35.73;15.77;;;0.60;99.90;;;;;;4181792;28;20440;-77
2024/03/06 06:34:15;;;;;;;42.47;16.73;;;0.60;99.90;;;;;;4178887;28;20442;-76
2024/03/06 06:36:16;;;;;;;43.10;18.77;;;0.60;99.90;;;;;;4184888;28;20559;-73
2024/03/06 06:38:17;;;;;;;40.80;17.83;;;0.60;99.90;;;;;;4182968;28;20816;-72
2024/03/06 06:40:20;;;;;;;41.63;17.23;;;0.60;99.90;;;;;;4187856;28;20673;-76
2024/03/06 06:42:24;;;;;;;45.73;18.00;;;0.60;99.90;;;;;;4186180;28;20498;-74
2024/03/06 06:44:26;;;;;;;40.00;17.80;;;0.60;99.90;;;;;;4183665;28;20613;-74
2024/03/06 06:46:28;;;;;;;38.60;17.13;;;0.60;99.90;;;;;;4191394;28;20484;-73
2024/03/06 06:48:29;;;;;;;41.63;18.57;;;0.60;99.90;;;;;;4182581;28;20484;-74
2024/03/06 06:50:33;;;;;;;38.70;16.83;;;0.70;99.90;;;;;;4184409;28;20449;-75
2024/03/06 06:52:35;;;;;;;42.60;18.57;;;0.70;99.90;;;;;;4184171;28;20236;-74
2024/03/06 06:54:37;;;;;;;41.27;17.93;;;0.70;99.90;;;;;;4184024;28;20452;-74
2024/03/06 06:56:39;;;;;;;43.63;18.60;;;0.70;99.90;;;;;;4183349;28;20465;-76
2024/03/06 06:58:43;;;;;;;43.50;18.70;;;0.70;99.90;;;;;;4189621;28;20508;-77
2024/03/06 07:00:45;;;;;;;40.57;17.27;;;0.70;99.90;;;;;;4192062;28;20444;-73
2024/03/06 07:02:47;;;;;;;39.93;17.50;;;0.70;99.90;;;;;;4183124;28;20452;-75
2024/03/06 07:04:49;;;;;;;39.17;17.47;;;0.70;99.90;;;;;;4186377;28;20903;-75
2024/03/06 07:06:51;;;;;;;41.27;17.67;;;0.70;99.90;;;;;;4189233;28;20479;-74
2024/03/06 07:08:52;;;;;;;38.97;17.20;;;0.80;99.90;;;;;;4188960;28;20535;-74
2024/03/06 07:10:55;;;;;;;43.03;19.33;;;0.80;99.90;;;;;;4187441;28;20533;-74
2024/03/06 07:12:57;;;;;;;40.57;18.13;;;0.80;99.90;;;;;;4190041;28;21020;-74
2024/03/06 07:14:59;;;;;;;45.03;18.93;;;0.80;99.90;;;;;;4186574;28;20848;-74
2024/03/06 07:17:03;;;;;;;38.47;18.20;;;0.80;99.90;;;;;;4192633;28;21100;-75
2024/03/06 07:19:05;;;;;;;43.17;18.67;;;0.80;99.90;;;;;;4187950;28;20484;-74
2024/03/06 07:21:08;;;;;;;40.93;18.43;;;0.80;99.90;;;;;;4183745;28;20852;-74
2024/03/06 07:23:10;;;;;;;46.67;19.97;;;0.90;99.90;;;;;;4185574;28;20996;-74
2024/03/06 07:25:11;;;;;;;43.47;19.10;;;0.90;99.90;;;;;;4190259;28;20488;-74
2024/03/06 07:27:13;;;;;;;43.57;18.60;;;0.90;99.90;;;;;;4186026;28;20531;-74
2024/03/06 07:29:15;;;;;;;40.80;18.80;;;1.00;99.90;;;;;;4186424;28;20203;-74
2024/03/06 07:31:19;;;;;;;43.73;19.37;;;1.00;99.90;;;;;;4191011;28;20823;-74
2024/03/06 07:33:21;;;;;;;42.63;19.13;;;1.10;99.90;;;;;;4181056;28;21143;-74
2024/03/06 07:35:22;;;;;;;45.57;19.60;;;1.00;99.90;;;;;;4183541;28;20528;-75
2024/03/06 07:37:23;;;;;;;46.07;20.17;;;1.10;99.90;;;;;;4190590;28;20456;-74
2024/03/06 07:39:26;;;;;;;43.17;20.23;;;1.10;99.90;;;;;;4186309;28;20202;-74
2024/03/06 07:41:28;;;;;;;47.63;20.20;;;1.20;99.90;;;;;;4188485;28;21022;-75
2024/03/06 07:43:29;;;;;;;51.13;20.83;;;1.30;99.90;;;;;;4185323;28;20492;-75
2024/03/06 07:45:31;;;;;;;49.53;19.80;;;1.30;99.90;;;;;;4189433;28;20935;-74
2024/03/06 07:47:34;;;;;;;46.57;21.27;;;1.30;99.90;;;;;;4186463;28;20542;-74
2024/03/06 07:49:35;;;;;;;43.63;20.83;;;1.40;99.90;;;;;;4189055;28;20494;-74
2024/03/06 07:51:37;;;;;;;50.50;21.80;;;1.40;99.90;;;;;;4188091;28;20948;-75
2024/03/06 07:53:39;;;;;;;56.00;22.97;;;1.40;99.90;;;;;;4181576;28;21022;-74
2024/03/06 07:55:41;;;;;;;52.30;22.60;;;1.50;99.90;;;;;;4184156;28;20503;-74
2024/03/06 07:57:43;;;;;;;46.83;21.20;;;1.50;99.90;;;;;;4180089;28;20535;-75
2024/03/06 07:59:44;;;;;;;46.67;21.13;;;1.50;99.90;;;;;;4183509;28;21001;-73
2024/03/06 08:01:46;;;;;;;47.57;21.70;;;1.60;99.90;;;;;;4187450;28;20452;-74
2024/03/06 08:03:50;;;;;;;50.03;22.23;;;1.60;99.90;;;;;;4181810;28;20457;-74
2024/03/06 08:05:52;;;;;;;50.83;20.77;;;1.60;99.90;;;;;;4181242;28;20587;-74
2024/03/06 08:07:56;;;;;;;50.17;21.70;;;1.70;99.90;;;;;;4185363;28;20601;-74
2024/03/06 08:09:57;;;;;;;49.43;21.70;;;1.70;99.90;;;;;;4187242;28;20469;-74
2024/03/06 08:12:00;;;;;;;54.57;21.90;;;1.70;99.90;;;;;;4188843;28;20894;-74
2024/03/06 08:14:02;;;;;;;55.67;23.97;;;2.10;99.90;;;;;;4184515;28;20445;-74
2024/03/06 08:16:07;;;;;;;54.30;22.43;;;1.80;99.90;;;;;;4186027;28;22098;-74
2024/03/06 08:18:10;;;;;;;51.70;22.40;;;1.90;99.90;;;;;;4184086;28;20807;-74
2024/03/06 08:20:13;;;;;;;56.50;22.03;;;1.90;99.90;;;;;;4187713;28;20982;-73
2024/03/06 08:22:16;;;;;;;56.60;23.23;;;1.90;99.90;;;;;;4184295;28;20451;-77
2024/03/06 08:24:18;;;;;;;50.27;22.03;;;1.90;99.90;;;;;;4184866;28;20871;-80
2024/03/06 08:26:21;;;;;;;58.83;24.77;;;2.00;99.90;;;;;;4188452;28;20493;-82
2024/03/06 08:28:23;;;;;;;58.93;23.27;;;2.10;99.90;;;;;;4184187;28;20549;-78
2024/03/06 08:30:27;;;;;;;55.30;24.07;;;2.50;99.90;;;;;;4192831;28;20483;-76
2024/03/06 08:32:29;;;;;;;54.50;25.17;;;2.20;99.90;;;;;;4189331;28;20494;-75
2024/03/06 08:34:31;;;;;;;58.23;24.53;;;2.20;99.90;;;;;;4185345;28;20883;-80
2024/03/06 08:36:35;;;;;;;56.13;23.27;;;2.30;99.90;;;;;;4188181;28;20468;-76
2024/03/06 08:38:37;;;;;;;59.23;25.40;;;2.30;99.90;;;;;;4184788;28;20449;-75
2024/03/06 08:40:39;;;;;;;53.97;23.80;;;2.40;99.90;;;;;;4187276;28;20468;-75
2024/03/06 08:42:40;;;;;;;59.43;24.47;;;3.20;99.90;;;;;;4189303;28;20797;-76
2024/03/06 08:44:42;;;;;;;56.13;23.50;;;2.10;99.90;;;;;;4192559;28;20445;-75
2024/03/06 08:46:44;;;;;;;61.73;24.97;;;2.60;99.90;;;;;;4183265;28;20472;-73
2024/03/06 08:48:46;;;;;;;62.50;25.77;;;2.60;99.90;;;;;;4183972;28;20489;-75
2024/03/06 08:50:48;;;;;;;56.57;24.23;;;2.70;99.90;;;;;;4186145;28;20786;-75
2024/03/06 08:52:52;;;;;;;62.60;27.33;;;2.70;99.90;;;;;;4184131;28;20460;-75
2024/03/06 08:54:54;;;;;;;62.23;28.93;;;2.80;99.90;;;;;;4183247;28;20526;-75
2024/03/06 08:56:58;;;;;;;63.83;27.83;;;2.90;99.90;;;;;;4187143;28;20469;-74
2024/03/06 08:58:59;;;;;;;61.67;26.37;;;2.90;99.90;;;;;;4186224;28;20440;-74
2024/03/06 09:01:01;;;;;;;63.30;27.73;;;3.00;99.90;;;;;;4186008;28;20889;-74
2024/03/06 09:03:03;;;;;;;62.20;27.43;;;3.00;99.90;;;;;;4182802;28;20530;-74
2024/03/06 09:05:06;;;;;;;60.03;26.13;;;3.10;99.90;;;;;;4186489;28;20528;-73
2024/03/06 09:07:08;;;;;;;65.03;27.87;;;3.20;99.90;;;;;;4185578;28;20519;-75
2024/03/06 09:09:14;;;;;;;60.17;27.00;;;3.20;99.90;;;;;;4183168;28;20460;-75
2024/03/06 09:11:16;;;;;;;64.73;25.93;;;3.30;99.90;;;;;;4187102;28;20482;-75
2024/03/06 09:13:18;;;;;;;63.63;26.87;;;3.30;99.90;;;;;;4185549;28;20477;-75
2024/03/06 09:15:20;;;;;;;63.13;27.37;;;3.40;99.90;;;;;;4186664;28;20470;-72
2024/03/06 09:17:22;;;;;;;62.93;27.97;;;3.40;99.90;;;;;;4183545;28;21033;-73
2024/03/06 09:19:24;;;;;;;65.40;28.47;;;3.50;99.90;;;;;;4184293;28;20456;-72
2024/03/06 09:21:26;;;;;;;68.73;29.27;;;3.60;99.90;;;;;;4184164;28;20450;-72
2024/03/06 09:23:29;;;;;;;67.43;29.63;;;3.60;99.90;;;;;;4185880;28;20459;-73
2024/03/06 09:25:33;;;;;;;61.13;27.20;;;3.70;99.90;;;;;;4185288;28;20484;-74
2024/03/06 09:27:35;;;;;;;67.70;27.00;;;3.70;99.90;;;;;;4187028;28;20468;-74
2024/03/06 09:29:37;;;;;;;64.17;27.63;;;3.80;99.90;;;;;;4182501;28;20448;-74
2024/03/06 09:31:38;;;;;;;67.17;28.73;;;3.80;99.90;;;;;;4182611;28;20448;-74
2024/03/06 09:33:40;;;;;;;68.03;29.87;;;3.90;99.90;;;;;;4186878;28;20523;-79
2024/03/06 09:35:44;;;;;;;63.70;29.33;;;4.00;99.90;;;;;;4180286;28;20763;-73
2024/03/06 09:37:47;;;;;;;70.13;29.87;;;4.10;99.90;;;;;;4186154;28;20462;-74
2024/03/06 09:39:49;;;;;;;73.67;30.77;;;4.10;99.90;;;;;;4186231;28;21241;-75
2024/03/06 09:41:53;;;;;;;74.97;30.53;;;4.20;99.90;;;;;;4186226;28;20464;-73
2024/03/06 09:43:55;;;;;;;81.40;32.07;;;4.20;99.90;;;;;;4189554;28;20447;-74
2024/03/06 09:45:58;;;;;;;72.33;32.63;;;4.30;99.90;;;;;;4183715;28;21001;-75
2024/03/06 09:47:59;;;;;;;67.10;31.17;;;4.40;99.90;;;;;;4181880;28;20475;-73
2024/03/06 09:50:03;;;;;;;80.50;33.00;;;4.50;99.90;;;;;;4185974;28;20898;-74
2024/03/06 09:52:05;;;;;;;73.03;31.23;;;4.50;99.90;;;;;;4186154;28;20915;-73
2024/03/06 09:54:09;;;;;;;74.33;31.70;;;4.60;99.90;;;;;;4185008;28;20462;-73
2024/03/06 09:56:11;;;;;;;69.90;31.10;;;4.60;99.90;;;;;;4180012;28;20461;-73
2024/03/06 09:58:14;;;;;;;78.27;32.03;;;4.70;99.90;;;;;;4184395;28;20468;-75
2024/03/06 10:00:17;;;;;;;80.37;32.80;;;4.80;99.90;;;;;;4186506;28;20543;-73
2024/03/06 10:02:31;;;;;;;74.43;31.90;;;4.80;99.90;;;;;;4183337;28;20539;-73
2024/03/06 10:04:37;;;;;;;72.67;32.37;;;4.90;99.90;;;;;;4183846;28;20456;-73
2024/03/06 10:06:38;;;;;;;79.27;32.70;;;5.00;99.90;;;;;;4185418;28;20995;-73
2024/03/06 10:08:43;;;;;;;75.93;32.93;;;5.10;99.90;;;;;;4182093;28;20577;-74
2024/03/06 10:10:46;;;;;;;67.50;30.27;;;5.20;99.90;;;;;;4183227;28;20464;-73
2024/03/06 10:12:47;;;;;;;74.30;32.23;;;5.20;99.90;;;;;;4181826;28;20493;-74
2024/03/06 10:14:54;;;;;;;63.20;28.67;;;5.30;99.90;;;;;;4187122;28;20531;-73
2024/03/06 10:16:57;;;;;;;68.07;30.60;;;5.40;99.90;;;;;;4186522;28;20220;-72
2024/03/06 10:18:59;;;;;;;75.97;33.37;;;5.50;99.90;;;;;;4190355;28;20444;-74
2024/03/06 10:21:01;;;;;;;72.10;33.33;;;5.60;99.90;;;;;;4187491;28;20461;-73
2024/03/06 10:23:03;;;;;;;80.07;32.83;;;5.70;99.90;;;;;;4190013;28;20444;-73
2024/03/06 10:25:09;;;;;;;78.07;33.87;;;5.70;99.90;;;;;;4189768;28;20456;-74
2024/03/06 10:27:17;;;;;;;75.07;32.33;;;5.80;99.90;;;;;;4188856;28;20456;-74